Time;durP1;ratioP1;P1;durP2;ratioP2;P2;SDS_P1;SDS_P2;PMS_P1;PMS_P2;Temp;Humidity;BMP_temperature;BMP_pressure;BME280_temperature;BME280_humidity;BME280_pressure;Samples;Min_cycle;Max_cycle;Signal;HPM_P1;HPM_P2
2021/05/27 00:00:19;;;;;;;7.20;4.53;;;12.70;84.60;;;;;;5093703;28;20034;-88
2021/05/27 00:02:45;;;;;;;7.78;5.45;;;12.70;84.80;;;;;;5105655;28;20032;-88
2021/05/27 00:05:11;;;;;;;6.85;4.53;;;12.70;84.70;;;;;;5101486;28;20036;-87
2021/05/27 00:07:37;;;;;;;6.60;4.90;;;12.70;84.60;;;;;;5069325;28;20066;-88
2021/05/27 00:10:05;;;;;;;9.63;4.97;;;12.70;84.70;;;;;;5085596;28;20020;-88
2021/05/27 00:12:30;;;;;;;8.18;4.90;;;12.70;84.80;;;;;;5113463;28;20534;-87
2021/05/27 00:14:56;;;;;;;8.68;5.30;;;12.70;84.70;;;;;;5070130;28;20031;-88
2021/05/27 00:17:22;;;;;;;8.93;5.15;;;12.70;84.70;;;;;;5113816;28;20028;-87
2021/05/27 00:19:48;;;;;;;8.13;4.93;;;12.70;84.80;;;;;;5087680;28;20093;-88
2021/05/27 00:22:14;;;;;;;9.68;5.95;;;12.70;84.80;;;;;;5061112;28;20604;-88
2021/05/27 00:24:39;;;;;;;8.02;5.55;;;12.70;84.70;;;;;;5071172;28;20036;-88
2021/05/27 00:27:06;;;;;;;9.75;5.03;;;12.60;84.70;;;;;;5077965;28;20482;-88
2021/05/27 00:29:32;;;;;;;11.13;5.70;;;12.60;84.80;;;;;;5077873;28;20032;-88
2021/05/27 00:31:58;;;;;;;8.98;5.78;;;12.50;84.90;;;;;;5075933;28;20119;-87
2021/05/27 00:34:24;;;;;;;8.32;5.50;;;12.50;85.00;;;;;;5111893;28;20028;-87
2021/05/27 00:36:50;;;;;;;12.98;6.25;;;12.60;85.10;;;;;;5079233;28;20039;-88
2021/05/27 00:39:15;;;;;;;8.52;5.75;;;12.50;85.00;;;;;;5063761;28;20420;-86
2021/05/27 00:41:41;;;;;;;10.75;5.90;;;12.50;85.10;;;;;;5067387;28;20397;-87
2021/05/27 00:44:23;;;;;;;10.70;5.88;;;12.50;85.10;;;;;;5094724;28;20155;-88
2021/05/27 00:46:49;;;;;;;9.77;5.72;;;12.50;85.40;;;;;;5097417;28;20024;-86
2021/05/27 00:49:15;;;;;;;10.18;7.38;;;12.50;85.20;;;;;;5085645;28;20055;-88
2021/05/27 00:51:43;;;;;;;10.38;7.10;;;12.50;85.10;;;;;;5071555;28;20434;-88
2021/05/27 00:54:08;;;;;;;13.80;6.95;;;12.50;85.30;;;;;;5084159;28;20028;-87
2021/05/27 00:56:35;;;;;;;13.32;7.20;;;12.50;85.30;;;;;;5097150;28;20036;-88
2021/05/27 00:59:01;;;;;;;11.93;8.13;;;12.50;85.20;;;;;;5104247;28;20086;-87
2021/05/27 01:01:26;;;;;;;10.63;6.88;;;12.50;85.40;;;;;;5107583;28;20383;-88
2021/05/27 01:03:52;;;;;;;10.45;6.45;;;12.50;85.50;;;;;;5095781;28;20034;-88
2021/05/27 01:06:17;;;;;;;13.32;8.45;;;12.50;85.70;;;;;;5088319;28;20137;-88
2021/05/27 01:08:43;;;;;;;10.30;6.97;;;12.50;85.70;;;;;;5093672;28;20027;-88
2021/05/27 01:11:09;;;;;;;10.35;7.63;;;12.50;85.70;;;;;;5043850;28;20039;-88
2021/05/27 01:13:34;;;;;;;11.10;6.57;;;12.50;85.60;;;;;;5060377;28;20039;-88
2021/05/27 01:16:00;;;;;;;12.32;7.30;;;12.50;85.50;;;;;;5095156;28;20024;-88
2021/05/27 01:18:27;;;;;;;12.98;7.40;;;12.50;85.50;;;;;;5077069;28;20438;-88
2021/05/27 01:20:55;;;;;;;13.02;6.88;;;12.50;85.50;;;;;;5094854;28;20051;-88
2021/05/27 01:23:23;;;;;;;13.85;7.47;;;12.50;85.70;;;;;;5115323;28;20084;-88
2021/05/27 01:25:52;;;;;;;11.77;6.80;;;12.50;85.60;;;;;;5115279;28;20024;-88
2021/05/27 01:28:18;;;;;;;14.40;7.47;;;12.50;85.50;;;;;;5114929;28;20080;-88
2021/05/27 01:30:45;;;;;;;13.02;6.32;;;12.50;85.50;;;;;;5085056;28;20274;-88
2021/05/27 01:33:12;;;;;;;10.40;6.95;;;12.50;85.60;;;;;;5108975;28;20057;-88
2021/05/27 01:35:38;;;;;;;12.38;6.72;;;12.50;85.70;;;;;;5076273;28;20361;-87
2021/05/27 01:38:31;;;;;;;11.20;7.78;;;12.50;85.70;;;;;;5081918;28;20036;-87
2021/05/27 01:41:00;;;;;;;17.25;7.40;;;12.50;85.50;;;;;;5104485;28;20060;-88
2021/05/27 01:43:26;;;;;;;18.52;8.05;;;12.50;85.60;;;;;;5115002;28;20072;-88
2021/05/27 01:45:52;;;;;;;22.02;7.57;;;12.50;86.20;;;;;;5079583;28;20104;-88
2021/05/27 01:48:18;;;;;;;12.63;6.70;;;12.40;85.50;;;;;;5096845;28;20061;-87
2021/05/27 01:50:47;;;;;;;12.43;7.20;;;12.40;85.60;;;;;;5096409;28;20403;-88
2021/05/27 01:53:13;;;;;;;16.40;7.03;;;12.40;85.80;;;;;;5114762;28;20045;-88
2021/05/27 01:55:41;;;;;;;17.13;7.78;;;12.40;85.60;;;;;;5079593;28;20036;-88
2021/05/27 01:58:07;;;;;;;14.68;7.20;;;12.40;85.70;;;;;;5096061;28;20031;-88
2021/05/27 02:00:33;;;;;;;17.58;7.85;;;12.40;85.80;;;;;;5096157;28;20111;-88
2021/05/27 02:02:59;;;;;;;10.98;7.13;;;12.40;85.90;;;;;;5076066;28;20592;-89
2021/05/27 02:05:25;;;;;;;19.95;8.00;;;12.40;85.90;;;;;;5094369;28;20122;-88
2021/05/27 02:07:50;;;;;;;16.35;7.60;;;12.40;85.90;;;;;;5064616;28;20020;-88
2021/05/27 02:10:16;;;;;;;17.77;7.30;;;12.40;85.90;;;;;;5076096;28;20028;-87
2021/05/27 02:12:42;;;;;;;14.48;7.43;;;12.40;85.90;;;;;;5084123;28;20128;-87
2021/05/27 02:15:09;;;;;;;13.55;7.05;;;12.50;85.90;;;;;;5073576;28;20472;-88
2021/05/27 02:17:35;;;;;;;14.55;7.40;;;12.50;86.00;;;;;;5114314;28;20028;-88
2021/05/27 02:20:03;;;;;;;16.45;7.63;;;12.50;85.70;;;;;;5082354;28;20028;-88
2021/05/27 02:22:28;;;;;;;12.63;6.35;;;12.50;85.60;;;;;;5075522;28;20047;-88
2021/05/27 02:24:54;;;;;;;17.33;7.13;;;12.50;85.50;;;;;;5075713;28;20109;-88
2021/05/27 02:27:20;;;;;;;14.40;6.95;;;12.50;85.20;;;;;;5053828;28;20477;-88
2021/05/27 02:29:45;;;;;;;16.60;6.75;;;12.40;84.90;;;;;;5095504;28;20047;-89
2021/05/27 02:32:11;;;;;;;13.23;6.13;;;12.40;85.00;;;;;;5095695;28;20430;-88
2021/05/27 02:34:37;;;;;;;17.77;8.23;;;12.40;84.90;;;;;;5114038;28;20123;-87
2021/05/27 02:37:03;;;;;;;15.55;6.25;;;12.40;84.80;;;;;;5095503;28;20028;-88
2021/05/27 02:39:29;;;;;;;20.05;7.65;;;12.50;84.70;;;;;;5095835;28;20030;-88
2021/05/27 02:41:54;;;;;;;19.50;6.90;;;12.40;84.80;;;;;;5078896;28;20050;-87
2021/05/27 02:44:21;;;;;;;16.52;6.85;;;12.40;84.60;;;;;;5095270;28;20043;-88
2021/05/27 02:46:46;;;;;;;15.82;6.38;;;12.40;84.50;;;;;;5103580;28;20077;-88
2021/05/27 02:49:12;;;;;;;16.83;7.18;;;12.40;84.40;;;;;;5081325;28;20020;-88
2021/05/27 02:51:38;;;;;;;13.45;6.30;;;12.40;84.20;;;;;;5069098;28;20473;-88
2021/05/27 02:54:04;;;;;;;12.77;6.55;;;12.40;84.10;;;;;;5083205;28;20521;-88
2021/05/27 02:56:30;;;;;;;17.67;7.05;;;12.40;84.00;;;;;;5095227;28;20059;-88
2021/05/27 02:58:56;;;;;;;17.02;6.25;;;12.40;84.10;;;;;;5095357;28;20027;-88
2021/05/27 03:01:22;;;;;;;15.98;7.38;;;12.40;84.10;;;;;;5113435;28;20498;-88
2021/05/27 03:03:48;;;;;;;13.77;6.97;;;12.40;84.30;;;;;;5095294;28;20032;-88
2021/05/27 03:06:14;;;;;;;12.60;6.60;;;12.50;84.30;;;;;;5113710;28;20055;-88
2021/05/27 03:08:42;;;;;;;21.67;7.75;;;12.40;83.80;;;;;;5095495;28;20107;-88
2021/05/27 03:11:09;;;;;;;19.13;7.35;;;12.40;83.50;;;;;;5095481;28;20031;-88
2021/05/27 03:13:35;;;;;;;17.17;7.70;;;12.40;83.40;;;;;;5090900;28;20039;-87
2021/05/27 03:16:02;;;;;;;14.05;7.07;;;12.40;83.50;;;;;;5109480;28;20020;-88
2021/05/27 03:18:30;;;;;;;16.67;7.82;;;12.40;83.40;;;;;;5105784;28;20110;-88
2021/05/27 03:20:56;;;;;;;15.95;7.22;;;12.40;83.40;;;;;;5113434;28;20032;-88
2021/05/27 03:23:22;;;;;;;17.08;7.43;;;12.40;83.30;;;;;;5113237;28;20088;-88
2021/05/27 03:25:48;;;;;;;19.42;8.25;;;12.30;83.20;;;;;;5078426;28;20028;-87
2021/05/27 03:28:13;;;;;;;15.80;7.10;;;12.40;83.30;;;;;;5095190;28;20054;-88
2021/05/27 03:30:39;;;;;;;20.67;8.02;;;12.40;83.10;;;;;;5095334;28;20157;-88
2021/05/27 03:33:05;;;;;;;21.02;8.10;;;12.40;83.20;;;;;;5094968;28;20099;-88
2021/05/27 03:35:31;;;;;;;19.70;8.38;;;12.40;83.30;;;;;;5095128;28;20038;-88
2021/05/27 03:37:57;;;;;;;21.10;7.40;;;12.40;83.40;;;;;;5106300;28;20035;-88
2021/05/27 03:40:23;;;;;;;14.18;7.43;;;12.40;83.60;;;;;;5109946;28;20031;-87
2021/05/27 03:42:51;;;;;;;16.92;8.38;;;12.40;83.50;;;;;;5094652;28;20434;-88
2021/05/27 03:45:23;;;;;;;18.20;7.80;;;12.40;83.50;;;;;;5117009;28;20036;-86
2021/05/27 03:47:49;;;;;;;15.93;7.35;;;12.40;83.50;;;;;;5098727;28;20622;-85
2021/05/27 03:50:17;;;;;;;21.90;9.55;;;12.40;84.20;;;;;;5098623;28;20024;-86
2021/05/27 03:52:43;;;;;;;15.77;7.70;;;12.40;83.40;;;;;;5081885;28;20049;-86
2021/05/27 03:55:12;;;;;;;20.77;8.18;;;12.40;83.60;;;;;;5092323;28;20028;-87
2021/05/27 03:57:38;;;;;;;15.30;8.40;;;12.30;83.60;;;;;;5116682;28;20078;-87
2021/05/27 04:02:51;;;;;;;17.33;8.13;;;12.30;83.70;;;;;;5113783;28;20038;-86
2021/05/27 04:08:04;;;;;;;15.63;8.02;;;12.30;84.00;;;;;;5101218;28;20127;-86
2021/05/27 04:10:30;;;;;;;22.90;9.23;;;12.30;84.00;;;;;;5116574;28;20027;-87
2021/05/27 04:12:55;;;;;;;26.75;8.95;;;12.40;83.80;;;;;;5116370;28;20042;-86
2021/05/27 04:15:27;;;;;;;21.52;8.65;;;12.40;83.80;;;;;;5081521;28;20049;-87
2021/05/27 04:18:00;;;;;;;23.80;9.18;;;12.40;83.70;;;;;;5098407;28;20023;-86
2021/05/27 04:20:31;;;;;;;24.17;9.77;;;12.40;83.50;;;;;;5081630;28;20085;-86
2021/05/27 04:22:58;;;;;;;21.17;8.85;;;12.30;82.80;;;;;;5077876;28;20115;-87
2021/05/27 04:25:25;;;;;;;24.58;9.40;;;12.30;82.40;;;;;;5097745;28;20495;-86
2021/05/27 04:27:53;;;;;;;20.75;8.60;;;12.20;82.30;;;;;;5096012;28;20031;-86
2021/05/27 04:30:20;;;;;;;20.25;8.98;;;12.20;82.50;;;;;;5095867;28;20062;-87
2021/05/27 04:35:28;;;;;;;23.23;8.13;;;12.20;82.30;;;;;;5116492;28;20028;-86
2021/05/27 04:37:56;;;;;;;22.70;9.38;;;12.20;82.30;;;;;;5116235;28;20062;-86
2021/05/27 04:40:23;;;;;;;24.23;8.90;;;12.10;82.10;;;;;;5115868;28;20034;-86
2021/05/27 04:42:49;;;;;;;19.98;8.13;;;12.10;82.00;;;;;;5115959;28;20032;-86
2021/05/27 04:45:15;;;;;;;16.88;7.72;;;12.10;81.90;;;;;;5097679;28;20148;-87
2021/05/27 04:47:40;;;;;;;19.52;7.93;;;12.10;82.10;;;;;;5081558;28;20023;-87
2021/05/27 04:50:08;;;;;;;17.35;8.27;;;12.10;81.80;;;;;;5081211;28;20488;-86
2021/05/27 04:52:34;;;;;;;23.65;9.30;;;12.00;81.90;;;;;;5114504;28;20389;-87
2021/05/27 04:55:01;;;;;;;19.98;8.45;;;12.00;82.20;;;;;;5115407;28;20031;-86
2021/05/27 04:57:26;;;;;;;18.38;8.10;;;12.00;82.40;;;;;;5097351;28;20031;-87
2021/05/27 04:59:52;;;;;;;21.30;8.93;;;12.00;82.30;;;;;;5097429;28;20032;-87
2021/05/27 05:02:17;;;;;;;16.52;8.15;;;12.00;82.30;;;;;;5080569;28;20032;-87
2021/05/27 05:04:43;;;;;;;19.33;8.60;;;12.00;82.50;;;;;;5097665;28;20108;-86
2021/05/27 05:07:09;;;;;;;20.52;8.77;;;12.00;82.70;;;;;;5096956;28;20413;-87
2021/05/27 05:09:35;;;;;;;22.95;9.23;;;12.00;83.00;;;;;;5096971;28;20077;-86
2021/05/27 05:12:00;;;;;;;24.98;9.05;;;12.00;82.90;;;;;;5089779;28;20052;-87
2021/05/27 05:14:26;;;;;;;18.10;8.35;;;12.00;83.00;;;;;;5091387;28;20028;-87
2021/05/27 05:16:51;;;;;;;23.90;9.40;;;12.00;83.20;;;;;;5097258;28;20480;-86
2021/05/27 05:19:17;;;;;;;22.58;8.95;;;12.00;83.40;;;;;;5096475;28;20103;-89
2021/05/27 05:21:43;;;;;;;17.98;8.23;;;12.00;83.70;;;;;;5077291;28;20115;-82
2021/05/27 05:24:09;;;;;;;15.68;7.90;;;12.10;83.80;;;;;;5077470;28;20119;-82
2021/05/27 05:26:35;;;;;;;17.52;8.15;;;12.10;83.80;;;;;;5103310;28;20050;-82
2021/05/27 05:29:00;;;;;;;18.05;7.43;;;12.10;83.80;;;;;;5063490;28;20471;-82
2021/05/27 05:31:26;;;;;;;23.75;8.48;;;12.00;83.90;;;;;;5095501;28;20035;-82
2021/05/27 05:33:55;;;;;;;17.60;7.65;;;12.00;84.00;;;;;;5097034;28;20106;-81
2021/05/27 05:36:21;;;;;;;;;;;12.00;84.80;;;;;;5097990;28;20023;-82
2021/05/27 05:38:47;;;;;;;21.70;8.20;;;12.00;84.10;;;;;;5115048;28;19908;-82
2021/05/27 05:41:13;;;;;;;17.45;8.07;;;11.90;84.50;;;;;;5096798;28;20425;-82
2021/05/27 05:43:38;;;;;;;22.02;9.00;;;11.90;84.90;;;;;;5079719;28;20027;-81
2021/05/27 05:46:04;;;;;;;19.00;8.20;;;12.00;85.10;;;;;;5114590;28;20177;-81
2021/05/27 05:48:30;;;;;;;18.90;7.97;;;12.00;85.90;;;;;;5096565;28;20020;-81
2021/05/27 05:50:57;;;;;;;16.63;8.23;;;12.00;85.20;;;;;;5088411;28;20032;-81
2021/05/27 05:53:23;;;;;;;14.85;7.78;;;12.00;85.40;;;;;;5059582;28;20035;-81
2021/05/27 05:55:51;;;;;;;17.60;8.07;;;12.10;85.40;;;;;;5101140;28;20063;-81
2021/05/27 05:58:17;;;;;;;17.60;6.50;;;12.10;85.40;;;;;;5114633;28;20027;-81
2021/05/27 06:00:44;;;;;;;20.67;7.53;;;12.00;85.20;;;;;;5114415;28;20369;-81
2021/05/27 06:03:11;;;;;;;23.38;7.28;;;12.10;85.40;;;;;;5113558;28;20118;-81
2021/05/27 06:05:37;;;;;;;19.92;6.32;;;12.10;85.30;;;;;;5099369;28;20116;-81
2021/05/27 06:08:03;;;;;;;15.13;6.93;;;12.00;85.20;;;;;;5075301;28;20470;-82
2021/05/27 06:10:29;;;;;;;20.88;7.10;;;12.00;85.30;;;;;;5106342;28;20020;-81
2021/05/27 06:12:56;;;;;;;16.48;6.60;;;12.00;85.40;;;;;;5095064;28;20551;-82
2021/05/27 06:15:27;;;;;;;16.20;6.80;;;12.00;85.20;;;;;;5099163;28;20047;-81
2021/05/27 06:17:52;;;;;;;21.23;6.75;;;12.00;85.20;;;;;;5095975;28;20031;-82
2021/05/27 06:20:20;;;;;;;21.17;6.30;;;12.00;85.50;;;;;;5096126;28;20079;-81
2021/05/27 06:22:46;;;;;;;17.42;6.53;;;12.00;85.80;;;;;;5090446;28;20384;-81
2021/05/27 06:25:13;;;;;;;21.23;6.70;;;12.00;85.90;;;;;;5104785;28;20023;-81
2021/05/27 06:27:39;;;;;;;22.23;6.70;;;12.00;85.90;;;;;;5095642;28;20046;-81
2021/05/27 06:30:06;;;;;;;15.57;7.13;;;12.00;85.90;;;;;;5114070;28;20484;-81
2021/05/27 06:32:34;;;;;;;22.30;7.47;;;12.00;85.90;;;;;;5095920;28;20036;-81
2021/05/27 06:35:01;;;;;;;19.88;6.82;;;12.00;86.20;;;;;;5062922;28;20484;-81
2021/05/27 06:37:26;;;;;;;14.43;6.70;;;12.00;86.20;;;;;;5114093;28;20396;-82
2021/05/27 06:39:52;;;;;;;14.98;6.18;;;12.00;86.60;;;;;;5113795;28;20034;-81
2021/05/27 06:42:19;;;;;;;19.15;7.40;;;12.00;86.80;;;;;;5078797;28;20112;-81
2021/05/27 06:44:45;;;;;;;22.40;7.53;;;12.00;86.60;;;;;;5113659;28;20051;-81
2021/05/27 06:47:10;;;;;;;21.05;7.78;;;12.00;86.60;;;;;;5113872;28;20048;-81
2021/05/27 06:49:36;;;;;;;19.40;7.18;;;12.00;87.40;;;;;;5101335;28;20032;-81
2021/05/27 06:52:02;;;;;;;13.82;6.90;;;12.00;87.00;;;;;;5106093;28;20104;-82
2021/05/27 06:54:27;;;;;;;17.20;7.40;;;12.00;86.90;;;;;;5095496;28;20488;-81
2021/05/27 06:56:53;;;;;;;20.58;7.63;;;12.00;87.30;;;;;;5095492;28;20554;-81
2021/05/27 06:59:19;;;;;;;17.73;7.32;;;12.10;87.40;;;;;;5062053;28;20467;-81
2021/05/27 07:01:45;;;;;;;14.75;7.43;;;12.10;87.20;;;;;;5088052;28;20028;-81
2021/05/27 07:04:11;;;;;;;20.20;8.15;;;12.10;87.20;;;;;;5112504;28;20039;-81
2021/05/27 07:06:37;;;;;;;23.60;6.95;;;12.20;87.90;;;;;;5078580;28;20479;-81
2021/05/27 07:09:03;;;;;;;18.63;6.68;;;12.20;87.20;;;;;;5078615;28;20047;-81
2021/05/27 07:11:29;;;;;;;18.83;7.20;;;12.10;87.10;;;;;;5113824;28;20095;-80
2021/05/27 07:13:55;;;;;;;21.70;7.22;;;12.20;87.30;;;;;;5095591;28;20523;-81
2021/05/27 07:16:20;;;;;;;18.75;6.93;;;12.20;87.50;;;;;;5081759;28;20032;-81
2021/05/27 07:18:46;;;;;;;20.25;6.95;;;12.20;87.60;;;;;;5108407;28;20112;-81
2021/05/27 07:21:11;;;;;;;19.02;7.20;;;12.20;87.70;;;;;;5083130;28;20059;-81
2021/05/27 07:23:37;;;;;;;23.27;7.20;;;12.30;87.70;;;;;;5097065;28;20032;-81
2021/05/27 07:26:04;;;;;;;18.08;7.45;;;12.30;87.60;;;;;;5085653;28;20030;-81
2021/05/27 07:28:30;;;;;;;17.25;7.65;;;12.20;87.10;;;;;;5082754;28;20028;-89
2021/05/27 07:30:56;;;;;;;20.73;7.32;;;12.20;87.20;;;;;;5100007;28;20406;-89
2021/05/27 07:33:22;;;;;;;20.60;7.45;;;12.10;87.60;;;;;;5066389;28;20122;-89
2021/05/27 07:35:47;;;;;;;18.33;7.90;;;12.10;87.90;;;;;;5066305;28;20035;-89
2021/05/27 07:38:13;;;;;;;23.63;7.57;;;12.20;88.50;;;;;;5083193;28;20035;-89
2021/05/27 07:40:39;;;;;;;20.65;7.55;;;12.20;88.30;;;;;;5099736;28;20088;-90
2021/05/27 07:43:05;;;;;;;27.45;8.70;;;12.20;88.00;;;;;;5099689;28;20059;-89
2021/05/27 07:45:30;;;;;;;17.83;7.70;;;12.10;88.10;;;;;;5099934;28;20075;-90
2021/05/27 07:47:56;;;;;;;17.67;7.28;;;12.10;88.20;;;;;;5099857;28;20024;-90
2021/05/27 07:50:22;;;;;;;13.43;7.20;;;12.10;88.50;;;;;;5099937;28;20024;-90
2021/05/27 07:52:49;;;;;;;19.33;9.60;;;12.10;88.70;;;;;;5087732;28;20361;-89
2021/05/27 07:55:15;;;;;;;23.33;8.90;;;12.20;88.60;;;;;;5062574;28;20039;-90
2021/05/27 07:57:41;;;;;;;24.90;8.93;;;12.10;88.10;;;;;;5079271;28;20032;-91
2021/05/27 08:00:08;;;;;;;20.70;8.02;;;12.10;88.70;;;;;;5082733;28;20224;-90
2021/05/27 08:02:34;;;;;;;19.80;8.48;;;12.10;88.40;;;;;;5082355;28;20030;-90
2021/05/27 08:05:00;;;;;;;22.55;9.35;;;12.10;88.80;;;;;;5117261;28;20420;-81
2021/05/27 08:07:26;;;;;;;26.50;9.48;;;12.10;89.00;;;;;;5088328;28;20137;-81
2021/05/27 08:09:51;;;;;;;18.48;9.35;;;12.10;89.20;;;;;;5092993;28;20035;-81
2021/05/27 08:12:17;;;;;;;20.52;8.27;;;12.10;89.00;;;;;;5115637;28;20038;-81
2021/05/27 08:14:44;;;;;;;23.48;9.40;;;12.10;88.90;;;;;;5108153;28;20027;-81
2021/05/27 08:17:10;;;;;;;18.75;9.00;;;12.20;89.10;;;;;;5084425;28;20043;-81
2021/05/27 08:19:36;;;;;;;20.15;8.75;;;12.20;89.20;;;;;;5061090;28;20480;-81
2021/05/27 08:22:02;;;;;;;23.30;9.68;;;12.20;89.30;;;;;;5095750;28;20036;-81
2021/05/27 08:24:27;;;;;;;20.00;8.52;;;12.20;89.30;;;;;;5111710;28;20980;-81
2021/05/27 08:26:53;;;;;;;25.55;9.88;;;12.30;89.10;;;;;;5115345;28;20020;-81
2021/05/27 08:29:19;;;;;;;24.33;10.35;;;12.40;89.10;;;;;;5098162;28;20020;-81
2021/05/27 08:31:44;;;;;;;23.83;9.57;;;12.30;88.80;;;;;;5116320;28;20081;-81
2021/05/27 08:34:10;;;;;;;27.42;9.48;;;12.30;89.40;;;;;;5109884;28;20511;-81
2021/05/27 08:36:38;;;;;;;25.45;8.65;;;12.30;89.00;;;;;;5095627;28;20353;-81
2021/05/27 08:39:05;;;;;;;23.35;9.98;;;12.30;88.80;;;;;;5095751;28;20073;-81
2021/05/27 08:41:31;;;;;;;23.13;9.52;;;12.30;89.10;;;;;;5084754;28;20385;-83
2021/05/27 08:43:57;;;;;;;23.85;9.27;;;12.40;89.30;;;;;;5085798;28;20050;-82
2021/05/27 08:46:23;;;;;;;18.90;8.85;;;12.50;89.50;;;;;;5072132;28;20032;-82
2021/05/27 08:48:50;;;;;;;20.42;8.48;;;12.60;88.70;;;;;;5104022;28;20039;-82
2021/05/27 08:51:16;;;;;;;17.77;8.25;;;12.60;88.20;;;;;;5070756;28;20024;-82
2021/05/27 08:53:44;;;;;;;26.02;9.60;;;12.60;87.90;;;;;;5097747;28;20028;-82
2021/05/27 08:56:11;;;;;;;21.35;8.93;;;12.60;87.80;;;;;;5088674;28;20024;-82
2021/05/27 08:58:37;;;;;;;16.52;8.07;;;12.60;87.90;;;;;;5097420;28;20039;-82
2021/05/27 09:01:03;;;;;;;20.83;8.13;;;12.60;87.80;;;;;;5115599;28;20567;-83
2021/05/27 09:03:45;;;;;;;21.17;8.45;;;12.60;87.80;;;;;;5080367;28;20032;-83
2021/05/27 09:06:13;;;;;;;22.17;8.05;;;12.70;88.10;;;;;;5115618;28;20036;-83
2021/05/27 09:08:39;;;;;;;20.38;7.72;;;12.70;88.00;;;;;;5097638;28;20030;-82
2021/05/27 09:11:16;;;;;;;20.65;7.88;;;12.80;87.70;;;;;;5087709;28;20016;-82
2021/05/27 09:14:01;;;;;;;23.85;7.85;;;12.80;87.50;;;;;;5109263;28;20035;-82
2021/05/27 09:16:27;;;;;;;20.05;7.57;;;12.70;87.00;;;;;;5115570;28;20039;-83
2021/05/27 09:18:53;;;;;;;24.85;7.93;;;12.60;87.20;;;;;;5096476;28;20024;-83
2021/05/27 09:21:37;;;;;;;29.10;8.45;;;12.70;87.50;;;;;;5095072;28;20032;-83
2021/05/27 09:24:03;;;;;;;22.98;7.13;;;12.60;87.40;;;;;;5094926;28;20035;-83
2021/05/27 09:26:28;;;;;;;15.23;7.07;;;12.70;87.60;;;;;;5076740;28;20035;-83
2021/05/27 09:29:10;;;;;;;15.35;7.00;;;12.60;87.40;;;;;;5099788;28;20111;-83
2021/05/27 09:31:36;;;;;;;21.13;7.65;;;12.70;87.80;;;;;;5096769;28;20026;-82
2021/05/27 09:34:04;;;;;;;22.90;7.07;;;12.70;87.90;;;;;;5088394;28;20032;-81
2021/05/27 09:36:30;;;;;;;16.40;6.90;;;12.80;87.60;;;;;;5106814;28;20055;-81
2021/05/27 09:38:59;;;;;;;19.00;7.63;;;12.80;87.30;;;;;;5115184;28;20038;-83
2021/05/27 09:41:34;;;;;;;17.67;7.15;;;12.80;87.10;;;;;;5104545;28;20043;-83
2021/05/27 09:44:02;;;;;;;14.98;6.68;;;12.80;86.60;;;;;;5082840;28;20036;-83
2021/05/27 09:46:31;;;;;;;21.00;8.00;;;12.80;86.70;;;;;;5112813;28;20034;-83
2021/05/27 09:49:04;;;;;;;24.92;8.38;;;12.70;86.90;;;;;;5100623;28;20054;-83
2021/05/27 09:51:29;;;;;;;21.00;8.15;;;12.70;87.00;;;;;;5098722;28;20028;-83
2021/05/27 09:53:56;;;;;;;19.17;6.97;;;12.60;87.60;;;;;;5064927;28;20032;-83
2021/05/27 09:56:51;;;;;;;18.05;6.75;;;12.70;87.70;;;;;;5096524;28;20027;-83
2021/05/27 09:59:17;;;;;;;19.50;7.32;;;12.70;88.10;;;;;;5073652;28;20028;-83
2021/05/27 10:02:11;;;;;;;21.70;7.43;;;12.80;87.80;;;;;;5081276;28;20035;-83
2021/05/27 10:04:37;;;;;;;21.15;7.95;;;12.90;87.40;;;;;;5094131;28;20081;-83
2021/05/27 10:07:03;;;;;;;18.80;6.60;;;13.00;87.00;;;;;;5075869;28;20028;-83
2021/05/27 10:09:29;;;;;;;18.17;6.78;;;13.10;86.50;;;;;;5094261;28;20092;-83
2021/05/27 10:11:55;;;;;;;20.48;6.40;;;13.20;86.50;;;;;;5077202;28;20118;-83
2021/05/27 10:14:23;;;;;;;20.10;6.95;;;13.20;86.20;;;;;;5113149;28;20035;-83
2021/05/27 10:16:50;;;;;;;24.20;9.13;;;13.30;86.40;;;;;;5090991;28;20056;-83
2021/05/27 10:19:16;;;;;;;24.33;9.98;;;13.40;86.00;;;;;;5079002;28;20060;-83
2021/05/27 10:21:41;;;;;;;19.77;9.88;;;13.50;86.20;;;;;;5075760;28;20040;-83
2021/05/27 10:24:08;;;;;;;18.88;10.63;;;13.70;86.30;;;;;;5041952;28;20503;-83
2021/05/27 10:26:33;;;;;;;22.77;10.07;;;13.90;85.40;;;;;;5099515;28;20047;-83
2021/05/27 10:29:01;;;;;;;18.70;10.13;;;14.00;84.30;;;;;;5093651;28;20023;-82
2021/05/27 10:31:28;;;;;;;23.00;11.15;;;14.10;83.70;;;;;;5079370;28;20554;-82
2021/05/27 10:33:55;;;;;;;17.65;9.10;;;14.10;83.10;;;;;;5113997;28;20024;-81
2021/05/27 10:36:21;;;;;;;14.82;7.03;;;14.10;82.80;;;;;;5096038;28;20035;-81
2021/05/27 10:38:50;;;;;;;20.17;7.80;;;14.00;81.80;;;;;;5062313;28;20058;-82
2021/05/27 10:41:41;;;;;;;19.27;7.13;;;14.00;82.40;;;;;;5080215;28;20051;-82
2021/05/27 10:44:11;;;;;;;18.27;6.47;;;14.00;82.20;;;;;;5095336;28;20027;-81
2021/05/27 10:46:43;;;;;;;13.48;6.07;;;14.00;82.80;;;;;;5096408;28;20488;-83
2021/05/27 10:49:09;;;;;;;17.08;5.95;;;14.00;83.50;;;;;;5102925;28;20380;-83
2021/05/27 10:51:42;;;;;;;13.23;4.75;;;14.10;82.50;;;;;;5093236;28;20016;-83
2021/05/27 10:54:13;;;;;;;13.50;5.03;;;14.20;81.80;;;;;;5113362;28;20028;-82
2021/05/27 10:56:44;;;;;;;13.32;4.60;;;14.40;81.20;;;;;;5093375;28;20035;-82
2021/05/27 10:59:13;;;;;;;11.90;5.05;;;14.60;80.20;;;;;;5093447;28;20028;-82
2021/05/27 11:01:41;;;;;;;15.15;4.70;;;14.70;79.80;;;;;;5112674;28;20028;-82
2021/05/27 11:04:21;;;;;;;13.00;4.70;;;14.80;79.40;;;;;;5095346;28;20034;-83
2021/05/27 11:06:49;;;;;;;11.40;4.93;;;14.80;79.90;;;;;;5102011;28;20069;-83
2021/05/27 11:09:19;;;;;;;13.53;4.00;;;14.80;79.10;;;;;;5096346;28;20023;-83
2021/05/27 11:11:55;;;;;;;10.95;4.75;;;14.80;78.20;;;;;;5111711;28;20110;-87
2021/05/27 11:14:41;;;;;;;14.10;5.20;;;14.70;77.60;;;;;;5080543;28;20024;-85
2021/05/27 11:17:08;;;;;;;11.70;5.30;;;14.50;77.90;;;;;;5075173;28;20027;-84
2021/05/27 11:25:27;;;;;;;12.43;6.03;;;14.10;78.90;;;;;;5113938;28;20076;-84
2021/05/27 11:28:03;;;;;;;11.82;6.00;;;14.10;78.80;;;;;;5095431;28;20475;-84
2021/05/27 11:30:37;;;;;;;16.02;6.45;;;14.00;79.70;;;;;;5113496;28;20023;-85
2021/05/27 11:33:15;;;;;;;18.20;6.25;;;13.90;79.30;;;;;;5095317;28;20034;-83
2021/05/27 11:35:42;;;;;;;15.65;6.25;;;14.00;80.00;;;;;;5095290;28;20023;-84
2021/05/27 11:38:12;;;;;;;11.13;6.32;;;14.10;79.70;;;;;;5113356;28;20024;-84
2021/05/27 11:40:40;;;;;;;16.88;6.50;;;14.20;79.10;;;;;;5095188;28;20047;-85
2021/05/27 11:43:06;;;;;;;14.93;6.00;;;14.30;78.20;;;;;;5113291;28;20026;-85
2021/05/27 11:45:44;;;;;;;14.80;6.70;;;14.40;77.90;;;;;;5091712;28;20447;-84
2021/05/27 11:51:00;;;;;;;11.65;5.07;;;14.30;77.70;;;;;;5093068;28;20061;-85
2021/05/27 11:53:25;;;;;;;13.73;5.45;;;14.20;77.30;;;;;;5092889;28;20025;-86
2021/05/27 11:55:57;;;;;;;12.32;4.75;;;14.20;77.10;;;;;;5091754;28;20035;-85
2021/05/27 11:58:38;;;;;;;13.38;4.60;;;14.20;77.30;;;;;;5071421;28;20162;-84
2021/05/27 12:01:25;;;;;;;13.55;4.63;;;14.20;77.30;;;;;;5089123;28;20028;-84
2021/05/27 12:04:21;;;;;;;15.15;4.30;;;14.20;77.30;;;;;;5095303;28;20384;-85
2021/05/27 12:06:46;;;;;;;14.18;4.93;;;14.30;77.90;;;;;;5074187;28;20028;-85
2021/05/27 12:09:20;;;;;;;12.23;4.63;;;14.40;76.90;;;;;;5080265;28;20476;-85
2021/05/27 12:11:47;;;;;;;12.20;4.43;;;14.60;77.60;;;;;;5095277;28;20032;-84
2021/05/27 12:14:13;;;;;;;13.57;4.00;;;14.80;77.30;;;;;;5061873;28;20522;-84
2021/05/27 12:16:39;;;;;;;13.27;5.35;;;14.90;76.70;;;;;;5093505;28;20077;-84
2021/05/27 12:19:07;;;;;;;12.27;6.95;;;15.00;75.40;;;;;;5074955;28;20107;-84
2021/05/27 12:21:33;;;;;;;14.40;7.43;;;15.00;74.60;;;;;;5074843;28;20499;-84
2021/05/27 12:23:59;;;;;;;14.05;6.45;;;15.00;74.10;;;;;;5074660;28;20063;-84
2021/05/27 12:26:25;;;;;;;13.57;7.28;;;14.90;74.50;;;;;;5094666;28;20039;-84
2021/05/27 12:28:55;;;;;;;16.23;7.43;;;14.80;74.70;;;;;;5094894;28;20028;-84
2021/05/27 12:31:21;;;;;;;19.70;7.25;;;14.70;74.90;;;;;;5078158;28;20047;-84
2021/05/27 12:33:47;;;;;;;20.45;7.95;;;14.70;75.40;;;;;;5094839;28;20032;-84
2021/05/27 12:36:13;;;;;;;19.20;8.57;;;14.60;74.80;;;;;;5096003;28;20020;-84
2021/05/27 12:38:44;;;;;;;16.75;8.27;;;14.70;74.80;;;;;;5096070;28;20084;-83
2021/05/27 12:41:11;;;;;;;16.45;8.45;;;14.90;74.30;;;;;;5094420;28;20725;-84
2021/05/27 12:43:48;;;;;;;18.05;9.63;;;15.00;74.20;;;;;;5095803;28;20028;-84
2021/05/27 12:46:17;;;;;;;17.90;9.52;;;15.10;73.70;;;;;;5078408;28;20056;-84
2021/05/27 12:48:50;;;;;;;18.30;10.70;;;15.00;73.70;;;;;;5095697;28;20016;-84
2021/05/27 12:51:17;;;;;;;15.38;10.70;;;15.00;73.50;;;;;;5094322;28;20120;-84
2021/05/27 12:53:51;;;;;;;20.27;12.10;;;14.80;73.40;;;;;;5094449;28;20405;-85
2021/05/27 12:56:20;;;;;;;23.58;12.00;;;14.70;73.80;;;;;;5094192;28;20032;-84